createdAt,value
2023-04-30T00:02:04.396Z,9.30
2023-04-30T00:04:32.524Z,9.30
2023-04-30T00:07:01.092Z,9.40
2023-04-30T00:09:29.109Z,9.40
2023-04-30T00:11:58.494Z,9.40
2023-04-30T00:14:26.701Z,9.40
2023-04-30T00:16:54.771Z,9.60
2023-04-30T00:19:22.836Z,9.70
2023-04-30T00:21:50.920Z,9.50
2023-04-30T00:24:19.154Z,9.40
2023-04-30T00:26:47.734Z,9.40
2023-04-30T00:29:17.056Z,9.40
2023-04-30T00:31:45.211Z,9.40
2023-04-30T00:34:13.386Z,9.30
2023-04-30T00:36:41.636Z,9.20
2023-04-30T00:39:09.835Z,9.30
2023-04-30T00:41:38.375Z,9.30
2023-04-30T00:44:06.636Z,9.30
2023-04-30T00:46:36.049Z,9.30
2023-04-30T00:49:05.804Z,9.30
2023-04-30T00:51:36.252Z,9.30
2023-04-30T00:54:05.664Z,9.30
2023-04-30T00:56:34.894Z,9.30
2023-04-30T00:59:03.063Z,9.20
2023-04-30T01:01:31.980Z,9.20
2023-04-30T01:04:02.001Z,9.20
2023-04-30T01:06:30.155Z,9.20
2023-04-30T01:08:58.462Z,9.20
2023-04-30T01:11:37.803Z,9.10
2023-04-30T01:14:11.552Z,9.10
2023-04-30T01:16:45.394Z,9.00
2023-04-30T01:19:30.485Z,9.00
2023-04-30T01:22:01.551Z,9.00
2023-04-30T01:24:48.246Z,9.00
2023-04-30T01:27:25.430Z,9.00
2023-04-30T01:29:57.475Z,9.30
2023-04-30T01:32:26.777Z,9.60
2023-04-30T01:34:54.905Z,9.40
2023-04-30T01:37:32.392Z,9.10
2023-04-30T01:40:17.082Z,9.10
2023-04-30T01:42:54.456Z,9.00
2023-04-30T01:45:42.967Z,9.00
2023-04-30T01:48:20.498Z,9.00
2023-04-30T01:50:52.971Z,8.80
2023-04-30T01:53:24.988Z,8.80
2023-04-30T01:55:58.485Z,8.80
2023-04-30T01:58:27.555Z,8.90
2023-04-30T02:00:57.044Z,8.80
2023-04-30T02:03:25.536Z,8.80
2023-04-30T02:05:54.744Z,8.70
2023-04-30T02:08:22.852Z,8.90
2023-04-30T02:10:51.016Z,9.00
2023-04-30T02:13:19.138Z,9.30
2023-04-30T02:15:47.360Z,9.10
2023-04-30T02:18:17.006Z,9.20
2023-04-30T02:20:45.280Z,9.30
2023-04-30T02:23:13.414Z,9.20
2023-04-30T02:25:42.327Z,9.10
2023-04-30T02:28:10.910Z,9.10
2023-04-30T02:30:39.368Z,9.80
2023-04-30T02:33:07.630Z,9.50
2023-04-30T02:35:37.163Z,9.40
2023-04-30T02:38:05.737Z,9.00
2023-04-30T02:40:33.949Z,9.00
2023-04-30T02:43:02.261Z,8.90
2023-04-30T02:45:30.364Z,8.90
2023-04-30T02:47:58.391Z,8.80
2023-04-30T02:50:26.489Z,8.90
2023-04-30T02:52:56.960Z,8.90
2023-04-30T02:55:24.998Z,9.30
2023-04-30T02:57:53.033Z,9.40
2023-04-30T03:00:21.496Z,9.10
2023-04-30T03:02:49.789Z,9.30
2023-04-30T03:05:18.262Z,9.60
2023-04-30T03:07:46.575Z,9.20
2023-04-30T03:10:16.206Z,9.00
2023-04-30T03:12:44.176Z,8.80
2023-04-30T03:15:12.672Z,8.80
2023-04-30T03:17:41.756Z,8.90
2023-04-30T03:20:12.641Z,8.90
2023-04-30T03:22:41.047Z,8.80
2023-04-30T03:25:11.592Z,8.70
2023-04-30T03:27:41.077Z,8.60
2023-04-30T03:30:10.108Z,8.60
2023-04-30T03:32:38.903Z,8.80
2023-04-30T03:35:08.000Z,9.40
2023-04-30T03:37:36.250Z,9.30
2023-04-30T03:40:04.847Z,9.00
2023-04-30T03:42:32.950Z,9.00
2023-04-30T03:45:02.358Z,9.40
2023-04-30T03:47:30.425Z,8.90
2023-04-30T03:49:58.601Z,8.80
2023-04-30T03:52:27.325Z,8.70
2023-04-30T03:54:55.381Z,8.90
2023-04-30T03:57:23.815Z,9.00
2023-04-30T03:59:52.490Z,9.30
2023-04-30T04:02:22.278Z,9.40
2023-04-30T04:04:51.681Z,9.20
2023-04-30T04:07:19.798Z,9.00
2023-04-30T04:09:48.260Z,9.00
2023-04-30T04:12:16.416Z,9.00
2023-04-30T04:14:46.619Z,9.10
2023-04-30T04:17:15.104Z,9.00
2023-04-30T04:19:46.447Z,9.30
2023-04-30T04:22:15.471Z,9.10
2023-04-30T04:24:43.835Z,9.10
2023-04-30T04:27:16.403Z,8.90
2023-04-30T04:29:44.982Z,8.80
2023-04-30T04:32:14.589Z,8.60
2023-04-30T04:34:43.999Z,8.70
2023-04-30T04:37:13.520Z,8.50
2023-04-30T04:39:41.591Z,8.50
2023-04-30T04:42:09.767Z,8.50
2023-04-30T04:44:38.214Z,8.60
2023-04-30T04:47:06.773Z,8.50
2023-04-30T04:49:34.812Z,8.60
2023-04-30T04:52:02.999Z,8.70
2023-04-30T04:54:32.423Z,8.70
2023-04-30T04:57:00.489Z,8.60
2023-04-30T04:59:28.540Z,8.70
2023-04-30T05:01:56.774Z,8.80
2023-04-30T05:04:24.900Z,8.90
2023-04-30T05:06:53.090Z,9.00
2023-04-30T05:09:21.370Z,9.00
2023-04-30T05:11:50.814Z,9.20
2023-04-30T05:14:18.842Z,9.50
2023-04-30T05:16:47.095Z,9.50
2023-04-30T05:19:15.270Z,9.50
2023-04-30T05:21:43.523Z,9.50
2023-04-30T05:24:11.598Z,9.70
2023-04-30T05:26:39.744Z,9.90
2023-04-30T05:29:10.678Z,9.90
2023-04-30T05:31:39.022Z,10.10
2023-04-30T05:34:07.300Z,10.00
2023-04-30T05:36:35.530Z,9.80
2023-04-30T05:39:04.479Z,10.00
2023-04-30T05:41:32.702Z,10.00
2023-04-30T05:44:02.754Z,9.90
2023-04-30T05:46:32.222Z,10.10
2023-04-30T05:49:00.365Z,10.40
2023-04-30T05:51:29.359Z,10.30
2023-04-30T05:53:58.270Z,10.30
2023-04-30T05:56:27.130Z,10.30
2023-04-30T05:58:55.158Z,10.30
2023-04-30T06:01:24.748Z,10.30
2023-04-30T06:03:54.404Z,10.70
2023-04-30T06:06:22.537Z,10.70
2023-04-30T06:08:50.575Z,10.80
2023-04-30T06:11:18.836Z,11.00
2023-04-30T06:13:49.481Z,11.00
2023-04-30T06:16:17.858Z,10.70
2023-04-30T06:18:46.170Z,10.90
2023-04-30T06:21:15.575Z,11.00
2023-04-30T06:23:43.577Z,11.20
2023-04-30T06:26:15.011Z,11.20
2023-04-30T06:28:43.251Z,11.10
2023-04-30T06:31:11.295Z,11.20
2023-04-30T06:33:39.851Z,11.30
2023-04-30T06:36:08.040Z,11.30
2023-04-30T06:38:37.838Z,11.40
2023-04-30T06:41:07.641Z,11.30
2023-04-30T06:43:35.734Z,11.20
2023-04-30T06:46:04.980Z,11.50
2023-04-30T06:48:33.120Z,11.60
2023-04-30T06:51:01.118Z,11.50
2023-04-30T06:53:29.264Z,11.60
2023-04-30T06:55:58.805Z,11.70
2023-04-30T06:58:26.878Z,11.70
2023-04-30T07:00:55.007Z,12.00
2023-04-30T07:03:23.320Z,11.90
2023-04-30T07:05:51.605Z,11.90
2023-04-30T07:08:19.663Z,12.20
2023-04-30T07:10:47.752Z,12.20
2023-04-30T07:13:17.532Z,12.40
2023-04-30T07:15:45.856Z,12.60
2023-04-30T07:18:14.090Z,12.60
2023-04-30T07:20:42.315Z,12.60
2023-04-30T07:23:10.560Z,12.70
2023-04-30T07:25:38.759Z,12.90
2023-04-30T07:28:06.870Z,13.00
2023-04-30T07:30:36.776Z,13.10
2023-04-30T07:33:05.097Z,12.90
2023-04-30T07:35:33.318Z,12.70
2023-04-30T07:38:01.321Z,12.60
2023-04-30T07:43:02.869Z,12.60
2023-04-30T07:45:31.805Z,12.60
2023-04-30T07:48:01.564Z,12.70
2023-04-30T07:50:33.790Z,12.70
2023-04-30T07:53:03.349Z,12.70
2023-04-30T07:55:31.509Z,12.70
2023-04-30T07:57:59.934Z,12.80
2023-04-30T08:00:29.474Z,12.90
2023-04-30T08:02:57.730Z,12.90
2023-04-30T08:05:27.379Z,13.10
2023-04-30T08:07:55.570Z,13.20
2023-04-30T08:10:23.638Z,13.20
2023-04-30T08:12:52.967Z,13.70
2023-04-30T08:15:22.489Z,13.80
2023-04-30T08:17:50.891Z,13.70
2023-04-30T08:20:20.028Z,13.50
2023-04-30T08:22:52.339Z,13.60
2023-04-30T08:25:20.519Z,13.70
2023-04-30T08:27:48.655Z,13.70
2023-04-30T08:30:16.994Z,13.80
2023-04-30T08:32:45.309Z,13.70
2023-04-30T08:35:13.456Z,14.10
2023-04-30T08:37:50.614Z,13.90
2023-04-30T08:40:23.476Z,14.20
2023-04-30T08:43:05.919Z,14.20
2023-04-30T08:45:34.709Z,14.30
2023-04-30T08:48:04.608Z,14.20
2023-04-30T08:50:33.094Z,14.60
2023-04-30T08:53:02.891Z,14.40
2023-04-30T08:55:35.604Z,14.60
2023-04-30T08:58:05.854Z,14.40
2023-04-30T09:00:34.920Z,14.10
2023-04-30T09:03:03.443Z,14.10
2023-04-30T09:05:32.033Z,14.40
2023-04-30T09:08:03.538Z,15.20
2023-04-30T09:10:35.119Z,15.00
2023-04-30T09:13:06.662Z,15.10
2023-04-30T09:15:36.129Z,15.20
2023-04-30T09:18:09.339Z,15.90
2023-04-30T09:20:37.946Z,15.30
2023-04-30T09:23:08.259Z,14.80
2023-04-30T09:25:44.998Z,15.00
2023-04-30T09:28:14.375Z,14.90
2023-04-30T09:30:43.247Z,15.00
2023-04-30T09:33:12.178Z,15.00
2023-04-30T09:35:43.195Z,15.30
2023-04-30T09:38:28.691Z,14.90
2023-04-30T09:41:00.018Z,15.00
2023-04-30T09:43:28.467Z,15.10
2023-04-30T09:45:58.976Z,14.80
2023-04-30T09:48:28.413Z,14.70
2023-04-30T09:50:56.914Z,14.70
2023-04-30T09:53:25.076Z,14.60
2023-04-30T09:55:54.533Z,14.70
2023-04-30T09:58:28.910Z,14.80
2023-04-30T10:01:00.278Z,14.70
2023-04-30T10:03:29.202Z,14.80
2023-04-30T10:05:58.099Z,14.70
2023-04-30T10:08:28.695Z,14.70
2023-04-30T10:11:01.199Z,15.00
2023-04-30T10:13:33.586Z,15.00
2023-04-30T10:16:09.802Z,14.90
2023-04-30T10:18:41.651Z,15.10
2023-04-30T10:21:17.379Z,15.20
2023-04-30T10:23:46.249Z,15.20
2023-04-30T10:26:17.054Z,15.60
2023-04-30T10:28:50.361Z,15.70
2023-04-30T10:31:22.458Z,15.30
2023-04-30T10:34:01.124Z,15.40
2023-04-30T10:36:41.463Z,15.10
2023-04-30T10:39:10.025Z,15.30
2023-04-30T10:41:38.364Z,15.30
2023-04-30T10:44:09.619Z,15.40
2023-04-30T10:46:38.179Z,15.50
2023-04-30T10:49:06.396Z,15.20
2023-04-30T10:51:48.735Z,15.20
2023-04-30T10:54:18.861Z,15.30
2023-04-30T10:56:48.530Z,15.50
2023-04-30T10:59:17.951Z,15.70
2023-04-30T11:01:59.998Z,15.80
2023-04-30T11:04:29.145Z,15.70
2023-04-30T11:07:09.395Z,15.60
2023-04-30T11:09:40.779Z,15.60
2023-04-30T11:12:14.071Z,16.10
2023-04-30T11:14:46.115Z,16.40
2023-04-30T11:17:23.112Z,16.30
2023-04-30T11:19:52.928Z,16.20
2023-04-30T11:22:24.414Z,16.00
2023-04-30T11:25:04.729Z,16.10
2023-04-30T11:27:34.218Z,16.20
2023-04-30T11:30:06.351Z,16.10
2023-04-30T11:32:36.857Z,16.00
2023-04-30T11:35:06.637Z,15.90
2023-04-30T11:37:36.423Z,15.90
2023-04-30T11:40:07.848Z,16.50
2023-04-30T11:42:37.755Z,16.60
2023-04-30T11:45:09.649Z,16.70
2023-04-30T11:47:46.226Z,16.70
2023-04-30T11:50:16.189Z,17.20
2023-04-30T11:52:51.010Z,17.60
2023-04-30T11:55:20.223Z,17.00
2023-04-30T11:57:50.525Z,17.60
2023-04-30T12:00:21.512Z,17.20
2023-04-30T12:02:51.306Z,17.30
2023-04-30T12:05:21.552Z,17.50
2023-04-30T12:07:51.835Z,16.30
2023-04-30T12:10:23.492Z,16.10
2023-04-30T12:12:53.210Z,16.50
2023-04-30T12:15:27.134Z,16.30
2023-04-30T12:17:56.819Z,16.60
2023-04-30T12:20:27.415Z,16.40
2023-04-30T12:22:56.143Z,16.60
2023-04-30T12:25:25.330Z,16.80
2023-04-30T12:27:55.935Z,16.70
2023-04-30T12:30:27.887Z,16.50
2023-04-30T12:33:00.912Z,16.50
2023-04-30T12:35:31.382Z,16.80
2023-04-30T12:38:05.027Z,16.70
2023-04-30T12:40:33.583Z,16.40
2023-04-30T12:43:02.746Z,16.30
2023-04-30T12:45:51.461Z,16.40
2023-04-30T12:48:20.865Z,16.60
2023-04-30T12:50:50.098Z,16.30
2023-04-30T12:53:18.317Z,16.30
2023-04-30T12:56:07.529Z,16.40
2023-04-30T12:58:36.999Z,16.60
2023-04-30T13:01:12.639Z,17.10
2023-04-30T13:03:41.415Z,16.70
2023-04-30T13:06:10.394Z,16.70
2023-04-30T13:08:49.864Z,16.70
2023-04-30T13:11:26.104Z,16.80
2023-04-30T13:13:55.877Z,17.70
2023-04-30T13:16:26.122Z,18.20
2023-04-30T13:18:54.683Z,18.10
2023-04-30T13:21:22.868Z,18.10
2023-04-30T13:23:53.468Z,18.20
2023-04-30T13:26:23.808Z,18.30
2023-04-30T13:28:52.205Z,18.40
2023-04-30T13:31:20.584Z,19.10
2023-04-30T13:33:50.277Z,17.70
2023-04-30T13:36:18.997Z,18.50
2023-04-30T13:38:47.172Z,18.10
2023-04-30T13:41:15.590Z,18.50
2023-04-30T13:43:44.606Z,19.10
2023-04-30T13:46:16.708Z,18.40
2023-04-30T13:48:48.088Z,19.10
2023-04-30T13:51:17.563Z,19.10
2023-04-30T13:53:45.773Z,18.60
2023-04-30T13:56:15.373Z,19.40
2023-04-30T13:58:43.476Z,20.20
2023-04-30T14:01:12.061Z,20.50
2023-04-30T14:03:41.044Z,20.60
2023-04-30T14:06:09.368Z,20.20
2023-04-30T14:08:39.264Z,20.30
2023-04-30T14:11:07.428Z,20.20
2023-04-30T14:13:35.750Z,18.50
2023-04-30T14:16:03.979Z,18.20
2023-04-30T14:18:32.548Z,17.70
2023-04-30T14:21:03.165Z,18.30
2023-04-30T14:23:31.250Z,19.60
2023-04-30T14:26:01.027Z,19.80
2023-04-30T14:28:29.087Z,18.90
2023-04-30T14:30:57.377Z,18.80
2023-04-30T14:33:25.668Z,19.10
2023-04-30T14:35:54.466Z,19.10
2023-04-30T14:38:22.451Z,19.50
2023-04-30T14:40:50.593Z,19.10
2023-04-30T14:43:20.096Z,19.20
2023-04-30T14:45:48.392Z,19.00
2023-04-30T14:48:16.575Z,18.90
2023-04-30T14:50:45.079Z,18.60
2023-04-30T14:53:13.160Z,19.60
2023-04-30T14:55:41.598Z,18.60
2023-04-30T14:58:09.777Z,19.30
2023-04-30T15:00:42.008Z,19.00
2023-04-30T15:03:10.258Z,19.20
2023-04-30T15:05:38.399Z,18.60
2023-04-30T15:08:06.761Z,19.80
2023-04-30T15:10:37.869Z,19.10
2023-04-30T15:13:06.266Z,19.50
2023-04-30T15:15:34.477Z,19.30
2023-04-30T15:18:05.877Z,20.00
2023-04-30T15:20:34.108Z,19.60
2023-04-30T15:23:02.348Z,19.70
2023-04-30T15:25:30.455Z,19.80
2023-04-30T15:28:00.130Z,19.60
2023-04-30T15:30:28.159Z,18.60
2023-04-30T15:32:56.214Z,18.00
2023-04-30T15:35:26.494Z,17.80
2023-04-30T15:37:54.910Z,17.80
2023-04-30T15:40:23.264Z,17.40
2023-04-30T15:42:51.590Z,17.50
2023-04-30T15:45:20.710Z,17.50
2023-04-30T15:47:49.090Z,17.30
2023-04-30T15:50:17.217Z,17.80
2023-04-30T15:52:46.693Z,18.20
2023-04-30T15:55:14.875Z,18.00
2023-04-30T15:57:42.999Z,17.90
2023-04-30T16:00:14.467Z,17.50
2023-04-30T16:02:42.805Z,17.40
2023-04-30T16:05:11.729Z,17.30
2023-04-30T16:07:42.368Z,17.90
2023-04-30T16:10:14.574Z,17.30
2023-04-30T16:12:42.838Z,17.60
2023-04-30T16:15:12.516Z,17.20
2023-04-30T16:17:41.057Z,17.40
2023-04-30T16:20:10.462Z,17.30
2023-04-30T16:22:38.677Z,17.50
2023-04-30T16:25:09.886Z,17.60
2023-04-30T16:27:39.660Z,17.00
2023-04-30T16:30:12.085Z,17.00
2023-04-30T16:32:40.272Z,17.00
2023-04-30T16:35:09.474Z,17.00
2023-04-30T16:37:37.831Z,17.20
2023-04-30T16:40:07.662Z,17.00
2023-04-30T16:42:36.933Z,16.70
2023-04-30T16:45:07.656Z,16.40
2023-04-30T16:47:35.845Z,16.50
2023-04-30T16:50:04.197Z,16.50
2023-04-30T16:52:33.218Z,16.60
2023-04-30T16:55:05.117Z,16.70
2023-04-30T16:57:33.325Z,16.70
2023-04-30T17:00:01.691Z,16.70
2023-04-30T17:02:31.807Z,16.50
2023-04-30T17:05:00.327Z,16.40
2023-04-30T17:07:28.348Z,16.30
2023-04-30T17:09:56.877Z,16.30
2023-04-30T17:12:25.629Z,16.40
2023-04-30T17:14:54.085Z,16.40
2023-04-30T17:17:23.402Z,16.20
2023-04-30T17:19:52.883Z,16.10
2023-04-30T17:22:20.975Z,15.90
2023-04-30T17:24:49.126Z,15.80
2023-04-30T17:27:17.364Z,15.80
2023-04-30T17:29:45.592Z,15.70
2023-04-30T17:32:17.280Z,15.60
2023-04-30T17:34:45.474Z,15.60
2023-04-30T17:37:14.912Z,15.60
2023-04-30T17:39:43.144Z,15.60
2023-04-30T17:42:13.037Z,15.20
2023-04-30T17:44:41.164Z,15.20
2023-04-30T17:47:09.208Z,15.20
2023-04-30T17:49:37.706Z,15.00
2023-04-30T17:52:07.014Z,14.90
2023-04-30T17:54:37.438Z,14.90
2023-04-30T17:57:06.525Z,14.80
2023-04-30T17:59:35.310Z,14.80
2023-04-30T18:02:05.473Z,14.60
2023-04-30T18:04:33.815Z,14.30
2023-04-30T18:07:01.934Z,14.40
2023-04-30T18:09:30.497Z,14.30
2023-04-30T18:12:00.254Z,14.00
2023-04-30T18:14:28.667Z,14.10
2023-04-30T18:16:57.013Z,14.00
2023-04-30T18:19:25.247Z,14.00
2023-04-30T18:21:55.798Z,14.00
2023-04-30T18:24:27.601Z,13.90
2023-04-30T18:26:55.818Z,14.00
2023-04-30T18:29:25.305Z,13.90
2023-04-30T18:31:53.384Z,14.00
2023-04-30T18:34:21.452Z,13.70
2023-04-30T18:36:49.527Z,13.20
2023-04-30T18:39:17.608Z,13.80
2023-04-30T18:41:45.630Z,13.50
2023-04-30T18:44:14.201Z,13.50
2023-04-30T18:46:43.733Z,13.70
2023-04-30T18:49:12.054Z,13.30
2023-04-30T18:51:40.128Z,13.00
2023-04-30T18:54:08.210Z,13.00
2023-04-30T18:56:37.650Z,13.10
2023-04-30T18:59:05.655Z,12.80
2023-04-30T19:01:33.782Z,13.20
2023-04-30T19:04:03.582Z,13.10
2023-04-30T19:06:33.426Z,13.10
2023-04-30T19:09:01.874Z,13.10
2023-04-30T19:11:30.444Z,13.30
2023-04-30T19:13:58.957Z,12.90
2023-04-30T19:16:27.190Z,12.80
2023-04-30T19:18:55.200Z,12.30
2023-04-30T19:21:24.639Z,12.80
2023-04-30T19:23:52.665Z,12.40
2023-04-30T19:26:22.000Z,12.20
2023-04-30T19:28:50.210Z,12.70
2023-04-30T19:31:18.471Z,12.40
2023-04-30T19:33:46.629Z,12.10
2023-04-30T19:36:15.416Z,12.10
2023-04-30T19:38:44.972Z,12.20
2023-04-30T19:41:13.161Z,11.90
2023-04-30T19:43:41.440Z,12.20
2023-04-30T19:46:10.090Z,12.20
2023-04-30T19:48:38.344Z,11.90
2023-04-30T19:51:06.716Z,12.40
2023-04-30T19:53:34.738Z,12.00
2023-04-30T19:56:04.541Z,12.00
2023-04-30T19:58:32.612Z,11.70
2023-04-30T20:01:03.129Z,11.70
2023-04-30T20:03:31.353Z,12.10
2023-04-30T20:05:59.870Z,12.10
2023-04-30T20:08:28.067Z,11.60
2023-04-30T20:10:57.233Z,11.30
2023-04-30T20:13:26.932Z,11.50
2023-04-30T20:15:55.123Z,11.80
2023-04-30T20:18:23.232Z,11.30
2023-04-30T20:20:52.281Z,11.20
2023-04-30T20:23:20.647Z,11.40
2023-04-30T20:25:50.159Z,11.70
2023-04-30T20:28:19.526Z,11.60
2023-04-30T20:30:49.451Z,11.80
2023-04-30T20:33:18.814Z,11.20
2023-04-30T20:35:47.664Z,10.90
2023-04-30T20:38:19.543Z,11.10
2023-04-30T20:40:48.208Z,10.60
2023-04-30T20:43:17.047Z,10.60
2023-04-30T20:45:45.961Z,10.90
2023-04-30T20:48:16.102Z,10.90
2023-04-30T20:50:44.763Z,11.00
2023-04-30T20:53:14.204Z,11.00
2023-04-30T20:55:42.410Z,11.40
2023-04-30T20:58:10.933Z,11.30
2023-04-30T21:00:39.332Z,11.20
2023-04-30T21:03:07.992Z,10.90
2023-04-30T21:05:37.510Z,11.00
2023-04-30T21:08:05.772Z,11.40
2023-04-30T21:10:36.843Z,11.00
2023-04-30T21:13:06.156Z,10.70
2023-04-30T21:15:36.510Z,10.60
2023-04-30T21:18:05.108Z,10.30
2023-04-30T21:20:33.253Z,10.60
2023-04-30T21:23:03.252Z,10.40
2023-04-30T21:25:31.552Z,10.80
2023-04-30T21:27:59.909Z,10.50
2023-04-30T21:30:27.904Z,10.80
2023-04-30T21:32:58.358Z,11.10
2023-04-30T21:35:27.624Z,10.90
2023-04-30T21:37:55.864Z,10.70
2023-04-30T21:40:25.637Z,10.30
2023-04-30T21:42:53.773Z,10.50
2023-04-30T21:45:22.259Z,10.50
2023-04-30T21:47:50.493Z,10.40
2023-04-30T21:50:18.660Z,10.30
2023-04-30T21:52:46.898Z,10.50
2023-04-30T21:55:14.925Z,10.10
2023-04-30T21:57:46.495Z,9.70
2023-04-30T22:00:16.857Z,9.50
2023-04-30T22:02:51.651Z,9.40
2023-04-30T22:05:21.132Z,9.40
2023-04-30T22:07:49.364Z,9.30
2023-04-30T22:10:17.412Z,9.50
2023-04-30T22:12:47.964Z,9.90
2023-04-30T22:15:16.590Z,9.50
2023-04-30T22:17:46.174Z,9.70
2023-04-30T22:20:14.539Z,9.50
2023-04-30T22:22:43.314Z,9.80
2023-04-30T22:25:11.461Z,10.10
2023-04-30T22:27:39.612Z,9.90
2023-04-30T22:30:10.053Z,9.60
2023-04-30T22:32:38.509Z,9.50
2023-04-30T22:35:08.136Z,9.80
2023-04-30T22:37:38.544Z,9.50
2023-04-30T22:40:08.121Z,9.20
2023-04-30T22:42:36.582Z,9.20
2023-04-30T22:45:05.350Z,9.40
2023-04-30T22:47:35.391Z,9.50
2023-04-30T22:50:04.772Z,9.30
2023-04-30T22:52:33.167Z,9.10
2023-04-30T22:55:01.717Z,9.00
2023-04-30T22:57:29.778Z,8.90
2023-04-30T22:59:58.116Z,8.80
2023-04-30T23:02:28.607Z,8.90
2023-04-30T23:04:58.188Z,8.90
2023-04-30T23:07:26.221Z,8.70
2023-04-30T23:09:54.815Z,8.60
2023-04-30T23:12:23.498Z,8.60
2023-04-30T23:14:51.925Z,8.60
2023-04-30T23:17:19.993Z,8.40
2023-04-30T23:19:48.094Z,8.30
2023-04-30T23:22:17.978Z,8.20
2023-04-30T23:24:46.140Z,8.10
2023-04-30T23:27:14.200Z,8.10
2023-04-30T23:29:42.969Z,8.00
2023-04-30T23:32:11.115Z,8.00
2023-04-30T23:34:39.194Z,8.10
2023-04-30T23:37:07.283Z,8.00
2023-04-30T23:39:36.862Z,7.90
2023-04-30T23:42:04.943Z,8.00
2023-04-30T23:44:33.022Z,7.90
2023-04-30T23:47:01.350Z,7.90
2023-04-30T23:49:29.405Z,8.00
2023-04-30T23:51:57.425Z,8.00
2023-04-30T23:54:25.496Z,8.00
2023-04-30T23:56:54.870Z,7.90
2023-04-30T23:59:25.211Z,7.80
